sensor_id;sensor_type;location;lat;lon;timestamp;P1;durP1;ratioP1;P2;durP2;ratioP2
29906;SDS011;16776;50.958;10.994;2024-03-22T00:02:00;1.63;;;1.45;;
29906;SDS011;16776;50.958;10.994;2024-03-22T00:04:28;2.05;;;1.80;;
29906;SDS011;16776;50.958;10.994;2024-03-22T00:06:54;1.92;;;1.67;;
29906;SDS011;16776;50.958;10.994;2024-03-22T00:09:20;2.78;;;1.70;;
29906;SDS011;16776;50.958;10.994;2024-03-22T00:11:46;1.77;;;1.55;;
29906;SDS011;16776;50.958;10.994;2024-03-22T00:14:12;2.05;;;1.85;;
29906;SDS011;16776;50.958;10.994;2024-03-22T00:16:38;2.70;;;1.45;;
29906;SDS011;16776;50.958;10.994;2024-03-22T00:19:05;1.92;;;1.50;;
29906;SDS011;16776;50.958;10.994;2024-03-22T00:21:32;1.65;;;1.35;;
29906;SDS011;16776;50.958;10.994;2024-03-22T00:23:58;1.90;;;1.67;;
29906;SDS011;16776;50.958;10.994;2024-03-22T00:26:26;1.95;;;1.75;;
29906;SDS011;16776;50.958;10.994;2024-03-22T00:28:52;2.63;;;1.83;;
29906;SDS011;16776;50.958;10.994;2024-03-22T00:31:18;2.00;;;1.85;;
29906;SDS011;16776;50.958;10.994;2024-03-22T00:33:44;2.58;;;2.22;;
29906;SDS011;16776;50.958;10.994;2024-03-22T00:36:10;3.22;;;1.50;;
29906;SDS011;16776;50.958;10.994;2024-03-22T00:38:38;2.70;;;1.90;;
29906;SDS011;16776;50.958;10.994;2024-03-22T00:41:04;2.63;;;1.90;;
29906;SDS011;16776;50.958;10.994;2024-03-22T00:43:30;2.83;;;1.73;;
29906;SDS011;16776;50.958;10.994;2024-03-22T00:45:56;2.28;;;1.60;;
29906;SDS011;16776;50.958;10.994;2024-03-22T00:48:23;2.20;;;1.85;;
29906;SDS011;16776;50.958;10.994;2024-03-22T00:50:49;3.38;;;1.60;;
29906;SDS011;16776;50.958;10.994;2024-03-22T00:53:15;2.20;;;1.70;;
29906;SDS011;16776;50.958;10.994;2024-03-22T00:55:43;1.83;;;1.73;;
29906;SDS011;16776;50.958;10.994;2024-03-22T00:58:09;4.13;;;1.65;;
29906;SDS011;16776;50.958;10.994;2024-03-22T01:00:35;2.08;;;1.88;;
29906;SDS011;16776;50.958;10.994;2024-03-22T01:03:03;1.52;;;1.35;;
29906;SDS011;16776;50.958;10.994;2024-03-22T01:05:28;1.85;;;1.42;;
29906;SDS011;16776;50.958;10.994;2024-03-22T01:07:55;1.50;;;1.38;;
29906;SDS011;16776;50.958;10.994;2024-03-22T01:10:20;3.05;;;1.73;;
29906;SDS011;16776;50.958;10.994;2024-03-22T01:12:48;2.20;;;1.70;;
29906;SDS011;16776;50.958;10.994;2024-03-22T01:15:14;2.15;;;1.67;;
29906;SDS011;16776;50.958;10.994;2024-03-22T01:17:40;1.88;;;1.75;;
29906;SDS011;16776;50.958;10.994;2024-03-22T01:20:06;2.17;;;1.98;;
29906;SDS011;16776;50.958;10.994;2024-03-22T01:22:33;2.40;;;1.92;;
29906;SDS011;16776;50.958;10.994;2024-03-22T01:24:59;2.33;;;1.75;;
29906;SDS011;16776;50.958;10.994;2024-03-22T01:27:25;2.63;;;1.80;;
29906;SDS011;16776;50.958;10.994;2024-03-22T01:29:52;2.53;;;1.63;;
29906;SDS011;16776;50.958;10.994;2024-03-22T01:32:19;1.98;;;1.40;;
29906;SDS011;16776;50.958;10.994;2024-03-22T01:34:44;2.20;;;1.77;;
29906;SDS011;16776;50.958;10.994;2024-03-22T01:37:11;1.60;;;1.50;;
29906;SDS011;16776;50.958;10.994;2024-03-22T01:39:36;3.33;;;1.90;;
29906;SDS011;16776;50.958;10.994;2024-03-22T01:42:03;1.92;;;1.27;;
29906;SDS011;16776;50.958;10.994;2024-03-22T01:44:29;2.75;;;1.55;;
29906;SDS011;16776;50.958;10.994;2024-03-22T01:46:59;1.92;;;1.80;;
29906;SDS011;16776;50.958;10.994;2024-03-22T01:49:26;1.65;;;1.40;;
29906;SDS011;16776;50.958;10.994;2024-03-22T01:51:53;2.50;;;1.45;;
29906;SDS011;16776;50.958;10.994;2024-03-22T01:54:19;3.13;;;1.50;;
29906;SDS011;16776;50.958;10.994;2024-03-22T01:56:46;1.73;;;1.23;;
29906;SDS011;16776;50.958;10.994;2024-03-22T01:59:12;5.15;;;1.85;;
29906;SDS011;16776;50.958;10.994;2024-03-22T02:01:39;2.10;;;1.58;;
29906;SDS011;16776;50.958;10.994;2024-03-22T02:04:06;2.05;;;1.65;;
29906;SDS011;16776;50.958;10.994;2024-03-22T02:06:33;2.63;;;1.90;;
29906;SDS011;16776;50.958;10.994;2024-03-22T02:08:58;2.63;;;1.75;;
29906;SDS011;16776;50.958;10.994;2024-03-22T02:11:25;3.10;;;1.90;;
29906;SDS011;16776;50.958;10.994;2024-03-22T02:13:51;1.70;;;1.60;;
29906;SDS011;16776;50.958;10.994;2024-03-22T02:16:18;1.88;;;1.73;;
29906;SDS011;16776;50.958;10.994;2024-03-22T02:18:44;2.28;;;1.85;;
29906;SDS011;16776;50.958;10.994;2024-03-22T02:21:12;2.63;;;1.42;;
29906;SDS011;16776;50.958;10.994;2024-03-22T02:23:39;2.20;;;1.38;;
29906;SDS011;16776;50.958;10.994;2024-03-22T02:26:07;1.70;;;1.50;;
29906;SDS011;16776;50.958;10.994;2024-03-22T02:28:33;2.30;;;1.50;;
29906;SDS011;16776;50.958;10.994;2024-03-22T02:31:01;2.95;;;1.77;;
29906;SDS011;16776;50.958;10.994;2024-03-22T02:33:27;2.17;;;1.60;;
29906;SDS011;16776;50.958;10.994;2024-03-22T02:35:54;2.58;;;1.70;;
29906;SDS011;16776;50.958;10.994;2024-03-22T02:38:19;2.40;;;1.80;;
29906;SDS011;16776;50.958;10.994;2024-03-22T02:40:48;2.47;;;1.63;;
29906;SDS011;16776;50.958;10.994;2024-03-22T02:43:16;4.50;;;1.40;;
29906;SDS011;16776;50.958;10.994;2024-03-22T02:45:44;2.05;;;1.40;;
29906;SDS011;16776;50.958;10.994;2024-03-22T02:48:09;2.22;;;1.60;;
29906;SDS011;16776;50.958;10.994;2024-03-22T02:50:36;4.00;;;2.05;;
29906;SDS011;16776;50.958;10.994;2024-03-22T02:53:02;3.20;;;1.98;;
29906;SDS011;16776;50.958;10.994;2024-03-22T02:55:30;1.50;;;1.40;;
29906;SDS011;16776;50.958;10.994;2024-03-22T02:58:02;3.03;;;1.90;;
29906;SDS011;16776;50.958;10.994;2024-03-22T03:00:29;2.15;;;1.90;;
29906;SDS011;16776;50.958;10.994;2024-03-22T03:02:55;1.70;;;1.48;;
29906;SDS011;16776;50.958;10.994;2024-03-22T03:05:21;3.05;;;1.55;;
29906;SDS011;16776;50.958;10.994;2024-03-22T03:07:48;2.35;;;1.33;;
29906;SDS011;16776;50.958;10.994;2024-03-22T03:10:15;1.73;;;1.52;;
29906;SDS011;16776;50.958;10.994;2024-03-22T03:12:41;2.65;;;1.35;;
29906;SDS011;16776;50.958;10.994;2024-03-22T03:15:09;2.50;;;1.80;;
29906;SDS011;16776;50.958;10.994;2024-03-22T03:17:34;2.38;;;1.85;;
29906;SDS011;16776;50.958;10.994;2024-03-22T03:20:01;3.22;;;2.03;;
29906;SDS011;16776;50.958;10.994;2024-03-22T03:22:27;2.53;;;1.85;;
29906;SDS011;16776;50.958;10.994;2024-03-22T03:24:54;3.05;;;1.80;;
29906;SDS011;16776;50.958;10.994;2024-03-22T03:27:19;2.60;;;1.60;;
29906;SDS011;16776;50.958;10.994;2024-03-22T03:29:46;3.28;;;1.92;;
29906;SDS011;16776;50.958;10.994;2024-03-22T03:32:13;2.22;;;1.90;;
29906;SDS011;16776;50.958;10.994;2024-03-22T03:34:39;2.13;;;1.83;;
29906;SDS011;16776;50.958;10.994;2024-03-22T03:37:05;2.05;;;1.70;;
29906;SDS011;16776;50.958;10.994;2024-03-22T03:39:31;2.33;;;1.85;;
29906;SDS011;16776;50.958;10.994;2024-03-22T03:41:57;2.17;;;1.73;;
29906;SDS011;16776;50.958;10.994;2024-03-22T03:44:23;2.13;;;1.90;;
29906;SDS011;16776;50.958;10.994;2024-03-22T03:46:49;1.63;;;1.52;;
29906;SDS011;16776;50.958;10.994;2024-03-22T03:49:17;2.28;;;1.85;;
29906;SDS011;16776;50.958;10.994;2024-03-22T03:51:42;2.97;;;1.83;;
29906;SDS011;16776;50.958;10.994;2024-03-22T03:54:09;3.80;;;1.92;;
29906;SDS011;16776;50.958;10.994;2024-03-22T03:56:34;3.65;;;1.70;;
29906;SDS011;16776;50.958;10.994;2024-03-22T03:59:01;3.50;;;2.22;;
29906;SDS011;16776;50.958;10.994;2024-03-22T04:01:27;2.58;;;2.05;;
29906;SDS011;16776;50.958;10.994;2024-03-22T04:03:53;2.80;;;2.20;;
29906;SDS011;16776;50.958;10.994;2024-03-22T04:06:20;4.13;;;2.28;;
29906;SDS011;16776;50.958;10.994;2024-03-22T04:08:47;2.80;;;2.22;;
29906;SDS011;16776;50.958;10.994;2024-03-22T04:11:12;4.35;;;2.38;;
29906;SDS011;16776;50.958;10.994;2024-03-22T04:13:39;3.28;;;2.20;;
29906;SDS011;16776;50.958;10.994;2024-03-22T04:16:05;4.60;;;2.60;;
29906;SDS011;16776;50.958;10.994;2024-03-22T04:18:31;3.60;;;2.55;;
29906;SDS011;16776;50.958;10.994;2024-03-22T04:20:58;4.97;;;2.75;;
29906;SDS011;16776;50.958;10.994;2024-03-22T04:23:27;3.75;;;2.40;;
29906;SDS011;16776;50.958;10.994;2024-03-22T04:25:53;5.30;;;2.90;;
29906;SDS011;16776;50.958;10.994;2024-03-22T04:28:20;3.50;;;2.35;;
29906;SDS011;16776;50.958;10.994;2024-03-22T04:30:53;2.95;;;2.10;;
29906;SDS011;16776;50.958;10.994;2024-03-22T04:35:52;3.38;;;2.00;;
29906;SDS011;16776;50.958;10.994;2024-03-22T04:38:19;3.92;;;2.50;;
29906;SDS011;16776;50.958;10.994;2024-03-22T04:40:47;2.55;;;2.08;;
29906;SDS011;16776;50.958;10.994;2024-03-22T04:43:14;4.97;;;2.97;;
29906;SDS011;16776;50.958;10.994;2024-03-22T04:45:41;3.20;;;2.30;;
29906;SDS011;16776;50.958;10.994;2024-03-22T04:48:08;4.95;;;2.90;;
29906;SDS011;16776;50.958;10.994;2024-03-22T04:50:34;3.72;;;2.40;;
29906;SDS011;16776;50.958;10.994;2024-03-22T04:53:00;4.18;;;2.45;;
29906;SDS011;16776;50.958;10.994;2024-03-22T04:55:26;4.38;;;2.80;;
29906;SDS011;16776;50.958;10.994;2024-03-22T04:57:54;3.80;;;2.53;;
29906;SDS011;16776;50.958;10.994;2024-03-22T05:00:20;5.25;;;2.70;;
29906;SDS011;16776;50.958;10.994;2024-03-22T05:02:46;3.85;;;2.80;;
29906;SDS011;16776;50.958;10.994;2024-03-22T05:05:12;4.50;;;3.08;;
29906;SDS011;16776;50.958;10.994;2024-03-22T05:07:39;4.50;;;3.08;;
29906;SDS011;16776;50.958;10.994;2024-03-22T05:10:05;5.07;;;3.30;;
29906;SDS011;16776;50.958;10.994;2024-03-22T05:12:32;4.82;;;2.70;;
29906;SDS011;16776;50.958;10.994;2024-03-22T05:15:00;5.50;;;3.22;;
29906;SDS011;16776;50.958;10.994;2024-03-22T05:17:26;5.68;;;2.95;;
29906;SDS011;16776;50.958;10.994;2024-03-22T05:19:53;4.63;;;2.60;;
29906;SDS011;16776;50.958;10.994;2024-03-22T05:22:19;4.13;;;2.78;;
29906;SDS011;16776;50.958;10.994;2024-03-22T05:24:47;5.10;;;2.80;;
29906;SDS011;16776;50.958;10.994;2024-03-22T05:27:12;5.18;;;2.97;;
29906;SDS011;16776;50.958;10.994;2024-03-22T05:29:39;4.00;;;2.63;;
29906;SDS011;16776;50.958;10.994;2024-03-22T05:32:06;5.25;;;3.17;;
29906;SDS011;16776;50.958;10.994;2024-03-22T05:34:33;4.93;;;2.72;;
29906;SDS011;16776;50.958;10.994;2024-03-22T05:37:00;7.90;;;3.22;;
29906;SDS011;16776;50.958;10.994;2024-03-22T05:39:27;4.50;;;3.65;;
29906;SDS011;16776;50.958;10.994;2024-03-22T05:41:52;6.45;;;3.53;;
29906;SDS011;16776;50.958;10.994;2024-03-22T05:44:20;7.07;;;3.13;;
29906;SDS011;16776;50.958;10.994;2024-03-22T05:46:46;6.20;;;3.55;;
29906;SDS011;16776;50.958;10.994;2024-03-22T05:49:14;5.53;;;3.50;;
29906;SDS011;16776;50.958;10.994;2024-03-22T05:51:40;6.10;;;3.67;;
29906;SDS011;16776;50.958;10.994;2024-03-22T05:54:06;8.70;;;4.55;;
29906;SDS011;16776;50.958;10.994;2024-03-22T05:56:32;5.70;;;3.33;;
29906;SDS011;16776;50.958;10.994;2024-03-22T05:58:59;6.05;;;3.83;;
29906;SDS011;16776;50.958;10.994;2024-03-22T06:01:24;6.70;;;4.70;;
29906;SDS011;16776;50.958;10.994;2024-03-22T06:03:51;6.85;;;3.85;;
29906;SDS011;16776;50.958;10.994;2024-03-22T06:06:18;7.18;;;3.97;;
29906;SDS011;16776;50.958;10.994;2024-03-22T06:08:47;8.60;;;4.22;;
29906;SDS011;16776;50.958;10.994;2024-03-22T06:11:17;8.00;;;4.30;;
29906;SDS011;16776;50.958;10.994;2024-03-22T06:13:43;6.15;;;3.80;;
29906;SDS011;16776;50.958;10.994;2024-03-22T06:16:09;7.10;;;3.45;;
29906;SDS011;16776;50.958;10.994;2024-03-22T06:18:36;7.30;;;2.90;;
29906;SDS011;16776;50.958;10.994;2024-03-22T06:21:02;4.45;;;3.20;;
29906;SDS011;16776;50.958;10.994;2024-03-22T06:23:31;6.63;;;3.83;;
29906;SDS011;16776;50.958;10.994;2024-03-22T06:25:57;5.55;;;3.63;;
29906;SDS011;16776;50.958;10.994;2024-03-22T06:28:25;6.28;;;3.55;;
29906;SDS011;16776;50.958;10.994;2024-03-22T06:30:51;6.28;;;3.03;;
29906;SDS011;16776;50.958;10.994;2024-03-22T06:33:19;4.85;;;3.58;;
29906;SDS011;16776;50.958;10.994;2024-03-22T06:35:45;6.20;;;3.03;;
29906;SDS011;16776;50.958;10.994;2024-03-22T06:38:12;6.15;;;3.65;;
29906;SDS011;16776;50.958;10.994;2024-03-22T06:40:39;6.25;;;3.47;;
29906;SDS011;16776;50.958;10.994;2024-03-22T06:43:05;7.35;;;4.18;;
29906;SDS011;16776;50.958;10.994;2024-03-22T06:45:31;7.32;;;4.00;;
29906;SDS011;16776;50.958;10.994;2024-03-22T06:47:57;6.63;;;3.65;;
29906;SDS011;16776;50.958;10.994;2024-03-22T06:50:23;7.10;;;4.43;;
29906;SDS011;16776;50.958;10.994;2024-03-22T06:52:50;7.13;;;4.30;;
29906;SDS011;16776;50.958;10.994;2024-03-22T06:55:16;7.50;;;4.93;;
29906;SDS011;16776;50.958;10.994;2024-03-22T06:57:44;8.82;;;4.78;;
29906;SDS011;16776;50.958;10.994;2024-03-22T07:00:11;8.00;;;5.53;;
29906;SDS011;16776;50.958;10.994;2024-03-22T07:02:38;8.43;;;5.50;;
29906;SDS011;16776;50.958;10.994;2024-03-22T07:05:04;7.93;;;4.82;;
29906;SDS011;16776;50.958;10.994;2024-03-22T07:07:31;8.82;;;4.85;;
29906;SDS011;16776;50.958;10.994;2024-03-22T07:09:57;9.95;;;4.90;;
29906;SDS011;16776;50.958;10.994;2024-03-22T07:12:23;7.18;;;4.57;;
29906;SDS011;16776;50.958;10.994;2024-03-22T07:14:50;8.25;;;4.72;;
29906;SDS011;16776;50.958;10.994;2024-03-22T07:17:17;9.30;;;4.57;;
29906;SDS011;16776;50.958;10.994;2024-03-22T07:19:42;9.23;;;5.25;;
29906;SDS011;16776;50.958;10.994;2024-03-22T07:22:09;10.05;;;6.13;;
29906;SDS011;16776;50.958;10.994;2024-03-22T07:24:35;8.75;;;4.60;;
29906;SDS011;16776;50.958;10.994;2024-03-22T07:27:01;9.23;;;5.45;;
29906;SDS011;16776;50.958;10.994;2024-03-22T07:29:27;9.00;;;5.25;;
29906;SDS011;16776;50.958;10.994;2024-03-22T07:31:55;8.48;;;5.45;;
29906;SDS011;16776;50.958;10.994;2024-03-22T07:34:21;8.82;;;5.85;;
29906;SDS011;16776;50.958;10.994;2024-03-22T07:36:47;11.48;;;5.97;;
29906;SDS011;16776;50.958;10.994;2024-03-22T07:39:13;11.65;;;6.75;;
29906;SDS011;16776;50.958;10.994;2024-03-22T07:41:40;11.60;;;6.85;;
29906;SDS011;16776;50.958;10.994;2024-03-22T07:44:05;10.55;;;6.55;;
29906;SDS011;16776;50.958;10.994;2024-03-22T07:46:32;12.20;;;6.82;;
29906;SDS011;16776;50.958;10.994;2024-03-22T07:48:59;11.43;;;6.47;;
29906;SDS011;16776;50.958;10.994;2024-03-22T07:51:26;9.88;;;5.85;;
29906;SDS011;16776;50.958;10.994;2024-03-22T07:53:52;9.15;;;6.18;;
29906;SDS011;16776;50.958;10.994;2024-03-22T07:56:18;10.93;;;6.07;;
29906;SDS011;16776;50.958;10.994;2024-03-22T07:58:44;12.00;;;6.97;;
29906;SDS011;16776;50.958;10.994;2024-03-22T08:01:12;8.77;;;5.53;;
29906;SDS011;16776;50.958;10.994;2024-03-22T08:03:37;11.02;;;5.82;;
29906;SDS011;16776;50.958;10.994;2024-03-22T08:06:05;8.15;;;5.22;;
29906;SDS011;16776;50.958;10.994;2024-03-22T08:08:31;10.05;;;6.05;;
29906;SDS011;16776;50.958;10.994;2024-03-22T08:10:57;12.27;;;6.63;;
29906;SDS011;16776;50.958;10.994;2024-03-22T08:13:23;8.35;;;5.70;;
29906;SDS011;16776;50.958;10.994;2024-03-22T08:15:50;9.55;;;5.40;;
29906;SDS011;16776;50.958;10.994;2024-03-22T08:18:15;8.50;;;5.25;;
29906;SDS011;16776;50.958;10.994;2024-03-22T08:20:42;10.35;;;5.55;;
29906;SDS011;16776;50.958;10.994;2024-03-22T08:23:09;11.45;;;5.78;;
29906;SDS011;16776;50.958;10.994;2024-03-22T08:25:35;10.63;;;6.22;;
29906;SDS011;16776;50.958;10.994;2024-03-22T08:28:02;9.23;;;5.53;;
29906;SDS011;16776;50.958;10.994;2024-03-22T08:30:29;8.23;;;5.20;;
29906;SDS011;16776;50.958;10.994;2024-03-22T08:32:54;8.65;;;5.90;;
29906;SDS011;16776;50.958;10.994;2024-03-22T08:35:21;10.30;;;5.65;;
29906;SDS011;16776;50.958;10.994;2024-03-22T08:37:46;10.27;;;5.72;;
29906;SDS011;16776;50.958;10.994;2024-03-22T08:40:14;8.95;;;5.03;;
29906;SDS011;16776;50.958;10.994;2024-03-22T08:42:40;9.85;;;5.40;;
29906;SDS011;16776;50.958;10.994;2024-03-22T08:45:07;9.18;;;5.05;;
29906;SDS011;16776;50.958;10.994;2024-03-22T08:47:33;9.90;;;5.72;;
29906;SDS011;16776;50.958;10.994;2024-03-22T08:50:00;8.52;;;5.18;;
29906;SDS011;16776;50.958;10.994;2024-03-22T08:52:25;7.55;;;4.55;;
29906;SDS011;16776;50.958;10.994;2024-03-22T08:54:52;6.70;;;4.40;;
29906;SDS011;16776;50.958;10.994;2024-03-22T08:57:20;6.43;;;4.13;;
29906;SDS011;16776;50.958;10.994;2024-03-22T08:59:47;7.07;;;4.20;;
29906;SDS011;16776;50.958;10.994;2024-03-22T09:02:13;5.57;;;3.97;;
29906;SDS011;16776;50.958;10.994;2024-03-22T09:04:39;5.30;;;3.75;;
29906;SDS011;16776;50.958;10.994;2024-03-22T09:07:05;6.78;;;3.53;;
29906;SDS011;16776;50.958;10.994;2024-03-22T09:09:32;5.78;;;4.00;;
29906;SDS011;16776;50.958;10.994;2024-03-22T09:11:58;6.28;;;4.50;;
29906;SDS011;16776;50.958;10.994;2024-03-22T09:14:25;9.43;;;4.68;;
29906;SDS011;16776;50.958;10.994;2024-03-22T09:16:52;7.90;;;4.90;;
29906;SDS011;16776;50.958;10.994;2024-03-22T09:19:17;6.10;;;3.50;;
29906;SDS011;16776;50.958;10.994;2024-03-22T09:21:44;4.75;;;3.25;;
29906;SDS011;16776;50.958;10.994;2024-03-22T09:24:10;5.93;;;4.07;;
29906;SDS011;16776;50.958;10.994;2024-03-22T09:26:36;6.15;;;3.30;;
29906;SDS011;16776;50.958;10.994;2024-03-22T09:29:02;7.65;;;3.83;;
29906;SDS011;16776;50.958;10.994;2024-03-22T09:31:30;5.72;;;4.20;;
29906;SDS011;16776;50.958;10.994;2024-03-22T09:33:57;4.85;;;3.05;;
29906;SDS011;16776;50.958;10.994;2024-03-22T09:36:24;4.95;;;3.58;;
29906;SDS011;16776;50.958;10.994;2024-03-22T09:38:50;8.45;;;5.03;;
29906;SDS011;16776;50.958;10.994;2024-03-22T09:41:21;7.90;;;4.95;;
29906;SDS011;16776;50.958;10.994;2024-03-22T09:43:50;9.23;;;5.15;;
29906;SDS011;16776;50.958;10.994;2024-03-22T09:46:17;6.35;;;4.43;;
29906;SDS011;16776;50.958;10.994;2024-03-22T09:48:45;7.93;;;5.22;;
29906;SDS011;16776;50.958;10.994;2024-03-22T09:51:13;6.35;;;4.80;;
29906;SDS011;16776;50.958;10.994;2024-03-22T09:53:42;8.50;;;5.00;;
29906;SDS011;16776;50.958;10.994;2024-03-22T09:56:10;7.68;;;4.50;;
29906;SDS011;16776;50.958;10.994;2024-03-22T09:58:39;7.65;;;4.88;;
29906;SDS011;16776;50.958;10.994;2024-03-22T10:01:06;7.78;;;4.63;;
29906;SDS011;16776;50.958;10.994;2024-03-22T10:03:32;8.60;;;4.63;;
29906;SDS011;16776;50.958;10.994;2024-03-22T10:06:01;8.45;;;4.70;;
29906;SDS011;16776;50.958;10.994;2024-03-22T10:08:26;8.13;;;5.28;;
29906;SDS011;16776;50.958;10.994;2024-03-22T10:10:53;8.13;;;5.63;;
29906;SDS011;16776;50.958;10.994;2024-03-22T10:13:18;9.50;;;5.72;;
29906;SDS011;16776;50.958;10.994;2024-03-22T10:15:46;8.57;;;6.30;;
29906;SDS011;16776;50.958;10.994;2024-03-22T10:18:11;11.13;;;7.43;;
29906;SDS011;16776;50.958;10.994;2024-03-22T10:20:39;9.13;;;6.15;;
29906;SDS011;16776;50.958;10.994;2024-03-22T10:23:07;11.15;;;6.95;;
29906;SDS011;16776;50.958;10.994;2024-03-22T10:25:34;11.27;;;7.63;;
29906;SDS011;16776;50.958;10.994;2024-03-22T10:28:00;11.35;;;6.65;;
29906;SDS011;16776;50.958;10.994;2024-03-22T10:30:27;11.68;;;7.07;;
29906;SDS011;16776;50.958;10.994;2024-03-22T10:32:54;10.10;;;7.30;;
29906;SDS011;16776;50.958;10.994;2024-03-22T10:35:21;13.48;;;7.35;;
29906;SDS011;16776;50.958;10.994;2024-03-22T10:37:48;10.27;;;6.50;;
29906;SDS011;16776;50.958;10.994;2024-03-22T10:40:18;9.15;;;6.65;;
29906;SDS011;16776;50.958;10.994;2024-03-22T10:42:45;8.85;;;6.35;;
29906;SDS011;16776;50.958;10.994;2024-03-22T10:45:12;9.95;;;6.50;;
29906;SDS011;16776;50.958;10.994;2024-03-22T10:47:37;9.73;;;6.07;;
29906;SDS011;16776;50.958;10.994;2024-03-22T10:50:05;7.10;;;5.22;;
29906;SDS011;16776;50.958;10.994;2024-03-22T10:52:36;9.57;;;6.68;;
29906;SDS011;16776;50.958;10.994;2024-03-22T10:55:06;8.00;;;5.80;;
29906;SDS011;16776;50.958;10.994;2024-03-22T10:57:38;7.15;;;5.40;;
29906;SDS011;16776;50.958;10.994;2024-03-22T11:00:08;8.90;;;6.68;;
29906;SDS011;16776;50.958;10.994;2024-03-22T11:02:35;9.90;;;6.38;;
29906;SDS011;16776;50.958;10.994;2024-03-22T11:05:02;10.52;;;7.25;;
29906;SDS011;16776;50.958;10.994;2024-03-22T11:07:30;9.52;;;6.32;;
29906;SDS011;16776;50.958;10.994;2024-03-22T11:09:57;7.05;;;5.93;;
29906;SDS011;16776;50.958;10.994;2024-03-22T11:12:26;8.57;;;5.78;;
29906;SDS011;16776;50.958;10.994;2024-03-22T11:14:59;11.70;;;6.20;;
29906;SDS011;16776;50.958;10.994;2024-03-22T11:17:25;9.35;;;6.15;;
29906;SDS011;16776;50.958;10.994;2024-03-22T11:19:52;7.20;;;5.68;;
29906;SDS011;16776;50.958;10.994;2024-03-22T11:22:17;9.02;;;6.32;;
29906;SDS011;16776;50.958;10.994;2024-03-22T11:24:44;9.15;;;6.57;;
29906;SDS011;16776;50.958;10.994;2024-03-22T11:27:12;9.93;;;7.00;;
29906;SDS011;16776;50.958;10.994;2024-03-22T11:29:39;10.02;;;6.32;;
29906;SDS011;16776;50.958;10.994;2024-03-22T11:32:08;6.97;;;5.18;;
29906;SDS011;16776;50.958;10.994;2024-03-22T11:34:34;6.97;;;5.20;;
29906;SDS011;16776;50.958;10.994;2024-03-22T11:37:01;9.93;;;6.38;;
29906;SDS011;16776;50.958;10.994;2024-03-22T11:39:28;8.02;;;5.45;;
29906;SDS011;16776;50.958;10.994;2024-03-22T11:41:54;8.05;;;5.50;;
29906;SDS011;16776;50.958;10.994;2024-03-22T11:44:21;8.40;;;5.65;;
29906;SDS011;16776;50.958;10.994;2024-03-22T11:46:50;7.10;;;5.25;;
29906;SDS011;16776;50.958;10.994;2024-03-22T11:49:18;7.53;;;5.30;;
29906;SDS011;16776;50.958;10.994;2024-03-22T11:51:44;6.35;;;4.93;;
29906;SDS011;16776;50.958;10.994;2024-03-22T11:54:11;11.18;;;5.80;;
29906;SDS011;16776;50.958;10.994;2024-03-22T11:56:37;8.30;;;5.97;;
29906;SDS011;16776;50.958;10.994;2024-03-22T11:59:06;9.35;;;5.63;;
29906;SDS011;16776;50.958;10.994;2024-03-22T12:01:32;8.23;;;5.75;;
29906;SDS011;16776;50.958;10.994;2024-03-22T12:03:59;7.10;;;5.00;;
29906;SDS011;16776;50.958;10.994;2024-03-22T12:06:26;7.93;;;5.90;;
29906;SDS011;16776;50.958;10.994;2024-03-22T12:08:53;6.93;;;5.53;;
29906;SDS011;16776;50.958;10.994;2024-03-22T12:11:18;7.28;;;5.93;;
29906;SDS011;16776;50.958;10.994;2024-03-22T12:13:46;8.65;;;6.35;;
29906;SDS011;16776;50.958;10.994;2024-03-22T12:16:12;7.63;;;5.97;;
29906;SDS011;16776;50.958;10.994;2024-03-22T12:18:38;7.93;;;5.63;;
29906;SDS011;16776;50.958;10.994;2024-03-22T12:21:05;6.07;;;4.75;;
29906;SDS011;16776;50.958;10.994;2024-03-22T12:23:32;9.35;;;5.60;;
29906;SDS011;16776;50.958;10.994;2024-03-22T12:25:58;8.20;;;5.50;;
29906;SDS011;16776;50.958;10.994;2024-03-22T12:28:24;5.22;;;4.43;;
29906;SDS011;16776;50.958;10.994;2024-03-22T12:30:50;9.15;;;5.82;;
29906;SDS011;16776;50.958;10.994;2024-03-22T12:33:16;8.98;;;5.38;;
29906;SDS011;16776;50.958;10.994;2024-03-22T12:35:43;7.50;;;6.10;;
29906;SDS011;16776;50.958;10.994;2024-03-22T12:38:09;9.02;;;5.07;;
29906;SDS011;16776;50.958;10.994;2024-03-22T12:40:40;7.28;;;4.78;;
29906;SDS011;16776;50.958;10.994;2024-03-22T12:43:05;8.95;;;5.30;;
29906;SDS011;16776;50.958;10.994;2024-03-22T12:45:32;7.55;;;5.60;;
29906;SDS011;16776;50.958;10.994;2024-03-22T12:47:58;7.25;;;5.25;;
29906;SDS011;16776;50.958;10.994;2024-03-22T12:50:24;8.93;;;5.32;;
29906;SDS011;16776;50.958;10.994;2024-03-22T12:52:50;8.43;;;6.00;;
29906;SDS011;16776;50.958;10.994;2024-03-22T12:55:16;9.45;;;5.95;;
29906;SDS011;16776;50.958;10.994;2024-03-22T12:57:43;6.63;;;4.82;;
29906;SDS011;16776;50.958;10.994;2024-03-22T13:00:11;7.75;;;5.45;;
29906;SDS011;16776;50.958;10.994;2024-03-22T13:02:38;7.82;;;5.78;;
29906;SDS011;16776;50.958;10.994;2024-03-22T13:05:05;9.38;;;6.32;;
29906;SDS011;16776;50.958;10.994;2024-03-22T13:07:32;7.60;;;5.57;;
29906;SDS011;16776;50.958;10.994;2024-03-22T13:09:58;8.85;;;5.97;;
29906;SDS011;16776;50.958;10.994;2024-03-22T13:12:25;8.20;;;5.82;;
29906;SDS011;16776;50.958;10.994;2024-03-22T13:14:53;10.23;;;6.28;;
29906;SDS011;16776;50.958;10.994;2024-03-22T13:17:18;6.22;;;4.70;;
29906;SDS011;16776;50.958;10.994;2024-03-22T13:19:45;7.75;;;4.85;;
29906;SDS011;16776;50.958;10.994;2024-03-22T13:22:11;7.55;;;5.53;;
29906;SDS011;16776;50.958;10.994;2024-03-22T13:24:39;10.77;;;6.30;;
29906;SDS011;16776;50.958;10.994;2024-03-22T13:27:05;6.38;;;4.85;;
29906;SDS011;16776;50.958;10.994;2024-03-22T13:29:33;6.63;;;4.97;;
29906;SDS011;16776;50.958;10.994;2024-03-22T13:32:00;9.15;;;5.88;;
29906;SDS011;16776;50.958;10.994;2024-03-22T13:34:26;6.20;;;4.63;;
29906;SDS011;16776;50.958;10.994;2024-03-22T13:36:52;6.13;;;4.68;;
29906;SDS011;16776;50.958;10.994;2024-03-22T13:39:18;8.95;;;5.03;;
29906;SDS011;16776;50.958;10.994;2024-03-22T13:41:44;9.05;;;4.95;;
29906;SDS011;16776;50.958;10.994;2024-03-22T13:44:10;5.90;;;4.43;;
29906;SDS011;16776;50.958;10.994;2024-03-22T13:46:36;5.63;;;4.50;;
29906;SDS011;16776;50.958;10.994;2024-03-22T13:49:12;6.63;;;5.25;;
29906;SDS011;16776;50.958;10.994;2024-03-22T13:51:40;8.48;;;5.57;;
29906;SDS011;16776;50.958;10.994;2024-03-22T13:54:07;9.77;;;5.53;;
29906;SDS011;16776;50.958;10.994;2024-03-22T13:56:32;8.35;;;5.28;;
29906;SDS011;16776;50.958;10.994;2024-03-22T13:58:59;7.10;;;4.97;;
29906;SDS011;16776;50.958;10.994;2024-03-22T14:01:25;7.15;;;4.80;;
29906;SDS011;16776;50.958;10.994;2024-03-22T14:03:52;6.22;;;4.45;;
29906;SDS011;16776;50.958;10.994;2024-03-22T14:06:19;6.57;;;4.28;;
29906;SDS011;16776;50.958;10.994;2024-03-22T14:08:45;6.90;;;5.05;;
29906;SDS011;16776;50.958;10.994;2024-03-22T14:11:11;5.32;;;4.00;;
29906;SDS011;16776;50.958;10.994;2024-03-22T14:13:38;5.25;;;3.75;;
29906;SDS011;16776;50.958;10.994;2024-03-22T14:16:03;7.55;;;4.60;;
29906;SDS011;16776;50.958;10.994;2024-03-22T14:18:32;4.85;;;4.35;;
29906;SDS011;16776;50.958;10.994;2024-03-22T14:20:57;5.50;;;4.15;;
29906;SDS011;16776;50.958;10.994;2024-03-22T14:23:25;7.07;;;4.90;;
29906;SDS011;16776;50.958;10.994;2024-03-22T14:25:51;12.95;;;8.38;;
29906;SDS011;16776;50.958;10.994;2024-03-22T14:28:17;10.55;;;7.90;;
29906;SDS011;16776;50.958;10.994;2024-03-22T14:30:43;8.25;;;6.18;;
29906;SDS011;16776;50.958;10.994;2024-03-22T14:33:09;6.47;;;5.30;;